createdAt,value
2019-03-25T00:02:06.388Z,75647.28
2019-03-25T00:04:47.123Z,75647.28
2019-03-25T00:07:28.001Z,75658.20
2019-03-25T00:10:09.292Z,75666.16
2019-03-25T00:12:50.260Z,75667.15
2019-03-25T00:15:31.219Z,75670.13
2019-03-25T00:18:12.498Z,75662.19
2019-03-25T00:20:53.465Z,75656.22
2019-03-25T00:23:33.775Z,75669.14
2019-03-25T00:26:14.161Z,75670.13
2019-03-25T00:28:54.747Z,75669.14
2019-03-25T00:31:35.462Z,75672.12
2019-03-25T00:34:15.802Z,75667.15
2019-03-25T00:36:56.663Z,75666.16
2019-03-25T00:39:36.979Z,75669.14
2019-03-25T00:42:17.305Z,75667.15
2019-03-25T00:44:58.256Z,75660.20
2019-03-25T00:47:40.974Z,75653.23
2019-03-25T00:50:22.112Z,75647.28
2019-03-25T00:53:03.070Z,75635.36
2019-03-25T00:55:43.772Z,75621.45
2019-03-25T00:58:24.142Z,75606.55
2019-03-25T01:01:04.526Z,75586.67
2019-03-25T01:03:45.060Z,75570.78
2019-03-25T01:06:25.300Z,75552.89
2019-03-25T01:09:05.992Z,75534.02
2019-03-25T01:11:49.186Z,75511.16
2019-03-25T01:14:27.334Z,75492.29
2019-03-25T01:17:07.702Z,75475.40
2019-03-25T01:19:48.097Z,75454.53
2019-03-25T01:22:28.456Z,75432.68
2019-03-25T01:25:09.754Z,75414.80
2019-03-25T01:27:50.460Z,75400.89
2019-03-25T01:30:31.643Z,75384.99
2019-03-25T01:33:12.302Z,75367.11
2019-03-25T01:35:53.574Z,75347.24
2019-03-25T01:38:34.249Z,75326.38
2019-03-25T01:41:15.488Z,75306.51
2019-03-25T01:43:56.488Z,75297.56
2019-03-25T01:46:37.732Z,75278.69
2019-03-25T01:49:18.973Z,75259.81
2019-03-25T01:51:59.959Z,75241.94
2019-03-25T01:54:40.436Z,75225.05
2019-03-25T01:57:21.627Z,75211.14
2019-03-25T02:00:02.695Z,75201.20
2019-03-25T02:02:43.818Z,75156.50
2019-03-25T02:05:25.088Z,75133.66
2019-03-25T02:08:06.054Z,75121.73
2019-03-25T02:10:47.296Z,75117.76
2019-03-25T02:13:28.938Z,75124.71
2019-03-25T02:16:10.203Z,75089.94
2019-03-25T02:18:51.179Z,75084.97
2019-03-25T02:21:32.628Z,75042.26
2019-03-25T02:24:14.054Z,75015.44
2019-03-25T02:26:55.016Z,74993.58
2019-03-25T02:29:35.882Z,75011.47
2019-03-25T02:32:16.746Z,74989.61
2019-03-25T02:34:57.908Z,74968.75
2019-03-25T02:37:40.143Z,74970.73
2019-03-25T02:40:20.899Z,74969.74
2019-03-25T02:43:01.945Z,74957.82
2019-03-25T02:45:42.563Z,74933.98
2019-03-25T02:48:23.005Z,74899.21
2019-03-25T02:51:03.158Z,74953.84
2019-03-25T02:53:44.373Z,74923.05
2019-03-25T02:56:24.598Z,74916.09
2019-03-25T02:59:06.893Z,74909.14
2019-03-25T03:01:47.790Z,74888.28
2019-03-25T03:04:28.756Z,74857.49
2019-03-25T03:07:09.535Z,74862.45
2019-03-25T03:09:50.654Z,74826.70
2019-03-25T03:12:31.284Z,74837.63
2019-03-25T03:15:12.342Z,74834.64
2019-03-25T03:17:54.493Z,74819.75
2019-03-25T03:20:36.093Z,74795.91
2019-03-25T03:23:16.819Z,74790.94
2019-03-25T03:25:58.295Z,74771.07
2019-03-25T03:28:39.036Z,74747.23
2019-03-25T03:31:20.637Z,74736.30
2019-03-25T03:34:01.846Z,74714.45
2019-03-25T03:36:42.255Z,74695.58
2019-03-25T03:39:22.606Z,74683.66
2019-03-25T03:42:03.211Z,74700.55
2019-03-25T03:44:44.155Z,74732.33
2019-03-25T03:47:24.835Z,74723.39
2019-03-25T03:50:07.111Z,74702.53
2019-03-25T03:52:48.015Z,74715.45
2019-03-25T03:55:28.676Z,74719.42
2019-03-25T03:58:09.895Z,74710.48
2019-03-25T04:00:50.946Z,74696.57
2019-03-25T04:03:32.114Z,74665.78
2019-03-25T04:06:13.158Z,74628.03
2019-03-25T04:08:53.783Z,74631.02
2019-03-25T04:11:34.987Z,74654.85
2019-03-25T04:14:15.580Z,74619.09
2019-03-25T04:16:56.587Z,74589.30
2019-03-25T04:19:37.507Z,74562.48
2019-03-25T04:22:18.157Z,74588.30
2019-03-25T04:24:59.234Z,74553.54
2019-03-25T04:27:39.962Z,74560.49
2019-03-25T04:30:21.398Z,74557.52
2019-03-25T04:33:02.625Z,74547.58
2019-03-25T04:35:43.713Z,74544.60
2019-03-25T04:38:25.231Z,74571.42
2019-03-25T04:41:05.967Z,74572.41
2019-03-25T04:43:47.025Z,74561.48
2019-03-25T04:46:28.416Z,74541.63
2019-03-25T04:49:09.356Z,74545.59
2019-03-25T04:51:50.340Z,74538.64
2019-03-25T04:54:31.335Z,74515.80
2019-03-25T04:57:12.266Z,74523.74
2019-03-25T04:59:52.916Z,74533.67
2019-03-25T05:02:34.208Z,74470.11
2019-03-25T05:05:15.509Z,74469.11
2019-03-25T05:07:56.470Z,74475.07
2019-03-25T05:10:37.929Z,74439.31
2019-03-25T05:13:19.055Z,74447.26
2019-03-25T05:15:59.956Z,74453.22
2019-03-25T05:18:41.241Z,74397.59
2019-03-25T05:21:22.518Z,74396.61
2019-03-25T05:24:03.555Z,74359.86
2019-03-25T05:26:51.034Z,74345.95
2019-03-25T05:29:26.281Z,74350.92
2019-03-25T05:32:07.063Z,74324.09
2019-03-25T05:34:48.031Z,74267.48
2019-03-25T05:37:28.753Z,74301.25
2019-03-25T05:40:10.174Z,74278.41
2019-03-25T05:42:51.475Z,74320.13
2019-03-25T05:45:32.415Z,74302.25
2019-03-25T05:48:15.005Z,74266.49
2019-03-25T05:50:56.201Z,74298.28
2019-03-25T05:53:38.813Z,74286.36
2019-03-25T05:56:19.192Z,74245.64
2019-03-25T05:59:00.778Z,74230.73
2019-03-25T06:01:44.087Z,74190.02
2019-03-25T06:04:23.985Z,74226.77
2019-03-25T06:07:05.544Z,74269.47
2019-03-25T06:09:47.166Z,74256.56
2019-03-25T06:12:28.207Z,74246.63
2019-03-25T06:15:09.155Z,74281.39
2019-03-25T06:17:49.785Z,74243.65
2019-03-25T06:20:30.653Z,74251.59
2019-03-25T06:23:11.696Z,74208.89
2019-03-25T06:25:52.891Z,74168.17
2019-03-25T06:28:33.700Z,74145.33
2019-03-25T06:31:14.921Z,74114.53
2019-03-25T06:33:56.136Z,74122.48
2019-03-25T06:36:36.897Z,74110.56
2019-03-25T06:39:18.420Z,74122.48
2019-03-25T06:41:59.026Z,74101.63
2019-03-25T06:44:39.793Z,74087.72
2019-03-25T06:47:20.923Z,74063.89
2019-03-25T06:50:01.658Z,74079.77
2019-03-25T06:52:42.844Z,74052.96
2019-03-25T06:55:24.177Z,74066.86
2019-03-25T06:58:05.426Z,74016.22
2019-03-25T07:00:46.016Z,74017.20
2019-03-25T07:03:26.762Z,73992.38
2019-03-25T07:06:08.350Z,74015.22
2019-03-25T07:08:49.458Z,74007.28
2019-03-25T07:11:30.448Z,74003.30
2019-03-25T07:14:11.807Z,74011.25
2019-03-25T07:16:52.809Z,73987.41
2019-03-25T07:19:33.662Z,73979.47
2019-03-25T07:22:14.920Z,73959.61
2019-03-25T07:24:56.010Z,73952.66
2019-03-25T07:27:37.259Z,73965.56
2019-03-25T07:30:18.286Z,73952.66
2019-03-25T07:32:59.524Z,73934.78
2019-03-25T07:35:40.509Z,73918.89
2019-03-25T07:38:21.783Z,73945.70
2019-03-25T07:41:04.130Z,73946.70
2019-03-25T07:43:45.621Z,73932.80
2019-03-25T07:46:27.238Z,73912.93
2019-03-25T07:49:08.506Z,73901.02
2019-03-25T07:51:49.657Z,73885.13
2019-03-25T07:54:30.943Z,73864.27
2019-03-25T07:57:12.369Z,73896.05
2019-03-25T07:59:53.993Z,73886.12
2019-03-25T08:02:35.256Z,73837.45
2019-03-25T08:05:16.175Z,73819.58
2019-03-25T08:07:57.262Z,73817.59
2019-03-25T08:10:40.389Z,73802.70
2019-03-25T08:13:21.490Z,73824.55
2019-03-25T08:16:03.450Z,73807.66
2019-03-25T08:18:44.721Z,73795.75
2019-03-25T08:21:25.664Z,73781.84
2019-03-25T08:24:06.697Z,73762.97
2019-03-25T08:26:47.644Z,73782.83
2019-03-25T08:29:28.682Z,73813.63
2019-03-25T08:32:09.943Z,73834.48
2019-03-25T08:34:50.795Z,73827.52
2019-03-25T08:37:32.178Z,73802.70
2019-03-25T08:40:13.413Z,73786.80
2019-03-25T08:42:54.735Z,73780.84
2019-03-25T08:45:35.709Z,73770.92
2019-03-25T08:48:17.005Z,73757.02
2019-03-25T08:50:57.951Z,73748.08
2019-03-25T08:53:38.801Z,73771.91
2019-03-25T08:56:19.879Z,73760.98
2019-03-25T08:59:00.915Z,73738.15
2019-03-25T09:01:42.122Z,73786.80
2019-03-25T09:04:22.769Z,73786.80
2019-03-25T09:07:03.919Z,73771.91
2019-03-25T09:09:44.998Z,73753.05
2019-03-25T09:12:26.268Z,73773.90
2019-03-25T09:15:06.920Z,73756.02
2019-03-25T09:17:47.729Z,73772.91
2019-03-25T09:20:28.450Z,73753.05
2019-03-25T09:23:09.499Z,73761.98
2019-03-25T09:25:50.649Z,73758.01
2019-03-25T09:28:31.686Z,73754.03
2019-03-25T09:31:12.774Z,73763.97
2019-03-25T09:33:53.502Z,73774.89
2019-03-25T09:36:34.473Z,73758.01
2019-03-25T09:39:15.426Z,73751.05
2019-03-25T09:41:56.716Z,73754.03
2019-03-25T09:44:37.738Z,73754.03
2019-03-25T09:47:18.628Z,73778.86
2019-03-25T09:50:00.384Z,73768.93
2019-03-25T09:52:42.132Z,73789.78
2019-03-25T09:55:23.267Z,73787.80
2019-03-25T09:58:04.683Z,73793.76
2019-03-25T10:00:46.290Z,73789.78
2019-03-25T10:03:27.065Z,73808.66
2019-03-25T10:06:08.511Z,73804.68
2019-03-25T10:08:49.691Z,73810.64
2019-03-25T10:11:30.590Z,73807.66
2019-03-25T10:14:12.956Z,73809.65
2019-03-25T10:16:53.404Z,73812.63
2019-03-25T10:19:34.101Z,73816.59
2019-03-25T10:22:15.707Z,73818.59
2019-03-25T10:24:56.978Z,73813.63
2019-03-25T10:27:38.360Z,73814.61
2019-03-25T10:30:19.544Z,73827.52
2019-03-25T10:33:01.167Z,73834.48
2019-03-25T10:35:42.422Z,73840.44
2019-03-25T10:38:23.367Z,73841.42
2019-03-25T10:41:04.030Z,73839.44
2019-03-25T10:43:44.171Z,73858.31
2019-03-25T10:46:24.339Z,73879.16
2019-03-25T10:49:04.724Z,73879.16
2019-03-25T10:51:45.847Z,73882.14
2019-03-25T10:54:26.793Z,73902.01
2019-03-25T10:57:07.629Z,73907.97
2019-03-25T10:59:48.743Z,73903.99
2019-03-25T11:02:30.233Z,73903.99
2019-03-25T11:05:11.360Z,73911.94
2019-03-25T11:07:52.467Z,73911.94
2019-03-25T11:10:33.549Z,73933.78
2019-03-25T11:13:14.169Z,73936.77
2019-03-25T11:15:55.449Z,73940.73
2019-03-25T11:18:36.406Z,73942.72
2019-03-25T11:21:17.354Z,73953.65
2019-03-25T11:23:58.361Z,73967.55
2019-03-25T11:26:39.307Z,73975.50
2019-03-25T11:29:20.598Z,73995.36
2019-03-25T11:32:02.019Z,74009.27
2019-03-25T11:34:43.449Z,74032.11
2019-03-25T11:37:25.403Z,74049.98
2019-03-25T11:40:06.337Z,74060.91
2019-03-25T11:42:47.300Z,74069.84
2019-03-25T11:45:28.627Z,74091.70
2019-03-25T11:48:09.215Z,74098.65
2019-03-25T11:50:49.877Z,74122.48
2019-03-25T11:53:30.842Z,74153.27
2019-03-25T11:56:12.186Z,74181.08
2019-03-25T11:58:52.728Z,74199.95
2019-03-25T12:01:33.366Z,74218.82
2019-03-25T12:04:14.308Z,74238.69
2019-03-25T12:06:55.199Z,74261.53
2019-03-25T12:09:36.920Z,74286.36
2019-03-25T12:12:17.912Z,74303.24
2019-03-25T12:15:01.447Z,74325.09
2019-03-25T12:17:41.448Z,74346.95
2019-03-25T12:20:22.728Z,74366.81
2019-03-25T12:23:03.627Z,74384.69
2019-03-25T12:25:45.213Z,74405.55
2019-03-25T12:28:26.063Z,74431.37
2019-03-25T12:31:07.160Z,74448.25
2019-03-25T12:33:47.609Z,74460.17
2019-03-25T12:36:28.411Z,74478.05
2019-03-25T12:39:09.374Z,74488.98
2019-03-25T12:41:50.659Z,74495.93
2019-03-25T12:44:31.940Z,74511.82
2019-03-25T12:47:13.546Z,74535.66
2019-03-25T12:49:54.808Z,74561.48
2019-03-25T12:52:35.770Z,74572.41
2019-03-25T12:55:16.745Z,74587.31
2019-03-25T12:57:57.687Z,74596.25
2019-03-25T13:00:39.247Z,74620.09
2019-03-25T13:03:19.847Z,74627.05
2019-03-25T13:06:00.891Z,74636.97
2019-03-25T13:08:41.849Z,74644.92
2019-03-25T13:11:22.875Z,74659.82
2019-03-25T13:14:04.107Z,74674.72
2019-03-25T13:16:45.712Z,74693.59
2019-03-25T13:19:26.718Z,74710.48
2019-03-25T13:22:07.804Z,74717.43
2019-03-25T13:24:49.211Z,74723.39
2019-03-25T13:27:30.171Z,74735.31
2019-03-25T13:30:10.815Z,74747.23
2019-03-25T13:32:51.479Z,74764.12
2019-03-25T13:35:32.096Z,74796.90
2019-03-25T13:38:13.054Z,74813.78
2019-03-25T13:40:54.033Z,74821.73
2019-03-25T13:43:34.977Z,74824.71
2019-03-25T13:46:15.924Z,74827.69
2019-03-25T13:48:57.216Z,74838.62
2019-03-25T13:51:37.552Z,74846.56
2019-03-25T13:54:18.806Z,74850.53
2019-03-25T13:56:59.773Z,74847.55
2019-03-25T13:59:41.049Z,74851.53
2019-03-25T14:02:24.266Z,74854.52
2019-03-25T14:05:03.663Z,74865.44
2019-03-25T14:07:45.215Z,74884.31
2019-03-25T14:10:26.817Z,74892.26
2019-03-25T14:13:07.989Z,74897.23
2019-03-25T14:15:49.073Z,74906.16
2019-03-25T14:18:30.330Z,74911.13
2019-03-25T14:21:11.635Z,74923.05
2019-03-25T14:23:52.283Z,74928.02
2019-03-25T14:26:33.534Z,74938.95
2019-03-25T14:29:14.740Z,74948.88
2019-03-25T14:31:56.437Z,74956.83
2019-03-25T14:34:44.644Z,74966.77
2019-03-25T14:37:18.974Z,74971.73
2019-03-25T14:40:00.392Z,74975.70
2019-03-25T14:42:41.681Z,74982.66
2019-03-25T14:45:26.429Z,74986.63
2019-03-25T14:48:03.854Z,75003.52
2019-03-25T14:50:44.088Z,75009.48
2019-03-25T14:53:25.056Z,75014.44
2019-03-25T14:56:06.016Z,75021.39
2019-03-25T14:58:47.057Z,75099.88
2019-03-25T15:01:27.926Z,75064.11
2019-03-25T15:04:08.931Z,75055.17
2019-03-25T15:06:49.541Z,75053.19
2019-03-25T15:09:30.810Z,75047.22
2019-03-25T15:12:11.781Z,75037.29
2019-03-25T15:14:53.057Z,75029.34
2019-03-25T15:17:34.173Z,75023.38
2019-03-25T15:20:15.292Z,75009.48
2019-03-25T15:22:56.617Z,75005.50
2019-03-25T15:25:37.302Z,75013.45
2019-03-25T15:28:18.181Z,75018.41
2019-03-25T15:30:58.897Z,75047.22
2019-03-25T15:33:40.137Z,75045.23
2019-03-25T15:36:20.703Z,75042.26
2019-03-25T15:39:01.699Z,75051.20
2019-03-25T15:41:42.334Z,75044.24
2019-03-25T15:44:22.966Z,75048.22
2019-03-25T15:47:03.937Z,75055.17
2019-03-25T15:49:44.567Z,75056.16
2019-03-25T15:52:25.530Z,75048.22
2019-03-25T15:55:07.127Z,75050.20
2019-03-25T15:57:48.110Z,75058.16
2019-03-25T16:00:29.049Z,75070.08
2019-03-25T16:03:10.086Z,75068.09
2019-03-25T16:05:51.287Z,75066.09
2019-03-25T16:08:32.284Z,75064.11
2019-03-25T16:11:13.524Z,75068.09
2019-03-25T16:13:55.143Z,75066.09
2019-03-25T16:16:36.428Z,75077.02
2019-03-25T16:19:17.689Z,75075.04
2019-03-25T16:21:59.609Z,75081.99
2019-03-25T16:24:40.691Z,75081.00
2019-03-25T16:27:21.697Z,75081.00
2019-03-25T16:30:02.839Z,75083.98
2019-03-25T16:32:43.840Z,75082.98
2019-03-25T16:35:25.135Z,75087.95
2019-03-25T16:38:06.326Z,75084.97
2019-03-25T16:40:47.761Z,75082.98
2019-03-25T16:43:28.916Z,75084.97
2019-03-25T16:46:09.476Z,75087.95
2019-03-25T16:48:50.725Z,75092.92
2019-03-25T16:51:32.306Z,75090.94
2019-03-25T16:54:13.472Z,75093.91
2019-03-25T16:56:55.292Z,75105.84
2019-03-25T16:59:35.927Z,75111.80
2019-03-25T17:02:17.436Z,75111.80
2019-03-25T17:04:58.498Z,75110.80
2019-03-25T17:07:39.790Z,75113.78
2019-03-25T17:10:21.270Z,75120.73
2019-03-25T17:13:02.657Z,75121.73
2019-03-25T17:15:43.881Z,75123.72
2019-03-25T17:18:24.769Z,75123.72
2019-03-25T17:21:06.173Z,75119.74
2019-03-25T17:23:48.479Z,75122.72
2019-03-25T17:26:29.461Z,75123.72
2019-03-25T17:29:10.362Z,75120.73
2019-03-25T17:31:53.245Z,75126.70
2019-03-25T17:34:35.154Z,75125.70
2019-03-25T17:37:17.472Z,75131.66
2019-03-25T17:39:58.973Z,75131.66
2019-03-25T17:42:39.319Z,75134.64
2019-03-25T17:45:20.568Z,75137.63
2019-03-25T17:48:03.188Z,75138.62
2019-03-25T17:50:43.768Z,75133.66
2019-03-25T17:53:24.218Z,75138.62
2019-03-25T17:56:04.773Z,75130.67
2019-03-25T17:58:44.897Z,75139.61
2019-03-25T18:01:32.071Z,75140.60
2019-03-25T18:04:06.229Z,75141.59
2019-03-25T18:06:46.844Z,75151.53
2019-03-25T18:09:27.307Z,75143.58
2019-03-25T18:12:07.562Z,75146.56
2019-03-25T18:14:47.689Z,75147.56
2019-03-25T18:17:28.049Z,75142.59
2019-03-25T18:20:17.939Z,75136.63
2019-03-25T18:22:49.521Z,75147.56
2019-03-25T18:25:29.883Z,75155.51
2019-03-25T18:28:10.537Z,75160.47
2019-03-25T18:30:50.891Z,75160.47
2019-03-25T18:33:31.227Z,75151.53
2019-03-25T18:36:11.987Z,75154.52
2019-03-25T18:38:53.078Z,75152.52
2019-03-25T18:41:34.346Z,75158.48
2019-03-25T18:44:16.301Z,75151.53
2019-03-25T18:46:57.074Z,75144.58
2019-03-25T18:49:37.466Z,75143.58
2019-03-25T18:52:19.152Z,75149.55
2019-03-25T18:55:00.040Z,75166.44
2019-03-25T18:57:40.753Z,75177.36
2019-03-25T19:00:21.180Z,75167.42
2019-03-25T19:03:02.771Z,75153.52
2019-03-25T19:05:43.309Z,75146.56
2019-03-25T19:08:24.304Z,75143.58
2019-03-25T19:11:05.676Z,75155.51
2019-03-25T19:13:46.168Z,75162.45
2019-03-25T19:16:27.545Z,75152.52
2019-03-25T19:19:09.071Z,75145.57
2019-03-25T19:21:50.341Z,75139.61
2019-03-25T19:24:31.623Z,75145.57
2019-03-25T19:27:12.646Z,75148.55
2019-03-25T19:29:53.530Z,75150.54
2019-03-25T19:32:34.390Z,75148.55
2019-03-25T19:35:16.107Z,75139.61
2019-03-25T19:37:57.049Z,75145.57
2019-03-25T19:40:38.007Z,75148.55
2019-03-25T19:43:19.119Z,75153.52
2019-03-25T19:46:00.325Z,75159.48
2019-03-25T19:48:41.543Z,75160.47
2019-03-25T19:51:22.837Z,75154.52
2019-03-25T19:54:03.100Z,75157.49
2019-03-25T19:56:44.145Z,75158.48
2019-03-25T19:59:25.056Z,75162.45
2019-03-25T20:02:17.959Z,75159.48
2019-03-25T20:04:48.060Z,75158.48
2019-03-25T20:07:30.336Z,75157.49
2019-03-25T20:10:11.804Z,75157.49
2019-03-25T20:12:52.728Z,75138.62
2019-03-25T20:15:45.396Z,75149.55
2019-03-25T20:18:15.691Z,75156.50
2019-03-25T20:20:56.672Z,75155.51
2019-03-25T20:23:37.911Z,75166.44
2019-03-25T20:26:18.501Z,75168.42
2019-03-25T20:28:59.776Z,75164.45
2019-03-25T20:31:41.712Z,75165.44
2019-03-25T20:34:22.499Z,75164.45
2019-03-25T20:37:03.756Z,75167.42
2019-03-25T20:39:44.597Z,75166.44
2019-03-25T20:42:25.847Z,75167.42
2019-03-25T20:45:06.580Z,75173.39
2019-03-25T20:47:48.155Z,75174.38
2019-03-25T20:50:29.128Z,75162.45
2019-03-25T20:53:10.657Z,75174.38
2019-03-25T20:55:51.286Z,75181.34
2019-03-25T20:58:32.254Z,75172.39
2019-03-25T21:01:12.953Z,75175.38
2019-03-25T21:03:53.895Z,75173.39
2019-03-25T21:06:34.493Z,75179.34
2019-03-25T21:09:15.786Z,75185.31
2019-03-25T21:11:56.764Z,75189.28
2019-03-25T21:14:37.725Z,75186.30
2019-03-25T21:17:18.470Z,75172.39
2019-03-25T21:19:59.548Z,75172.39
2019-03-25T21:22:40.357Z,75179.34
2019-03-25T21:25:20.904Z,75191.27
2019-03-25T21:28:02.157Z,75190.27
2019-03-25T21:30:48.154Z,75202.20
2019-03-25T21:33:25.686Z,75209.15
2019-03-25T21:36:06.975Z,75215.11
2019-03-25T21:38:49.054Z,75222.06
2019-03-25T21:41:30.179Z,75218.09
2019-03-25T21:44:11.176Z,75225.05
2019-03-25T21:46:51.868Z,75223.06
2019-03-25T21:49:32.666Z,75229.02
2019-03-25T21:52:13.665Z,75229.02
2019-03-25T21:54:54.995Z,75235.97
2019-03-25T21:57:35.961Z,75241.94
2019-03-25T22:00:16.820Z,75244.91
2019-03-25T22:03:11.021Z,75246.90
2019-03-25T22:05:39.775Z,75248.89
2019-03-25T22:08:20.727Z,75253.86
2019-03-25T22:11:01.070Z,75265.78
2019-03-25T22:13:42.326Z,75267.77
2019-03-25T22:16:23.146Z,75264.78
2019-03-25T22:19:04.574Z,75266.77
2019-03-25T22:21:45.356Z,75264.78
2019-03-25T22:24:26.435Z,75245.91
2019-03-25T22:27:08.435Z,75241.94
2019-03-25T22:29:49.148Z,75246.90
2019-03-25T22:32:30.351Z,75276.70
2019-03-25T22:35:11.615Z,75294.59
2019-03-25T22:37:52.267Z,75300.55
2019-03-25T22:40:33.216Z,75303.53
2019-03-25T22:43:13.613Z,75302.53
2019-03-25T22:45:55.461Z,75308.50
2019-03-25T22:48:36.410Z,75303.53
2019-03-25T22:51:17.353Z,75295.58
2019-03-25T22:53:58.656Z,75284.66
2019-03-25T22:56:39.997Z,75284.66
2019-03-25T22:59:20.913Z,75282.66
2019-03-25T23:02:02.371Z,75281.67
2019-03-25T23:04:42.775Z,75277.70
2019-03-25T23:07:23.197Z,75285.64
2019-03-25T23:10:03.588Z,75286.64
2019-03-25T23:12:44.167Z,75291.61
2019-03-25T23:15:25.369Z,75286.64
2019-03-25T23:18:06.650Z,75286.64
2019-03-25T23:20:47.117Z,75284.66
2019-03-25T23:23:28.572Z,75293.59
2019-03-25T23:26:09.869Z,75297.56
2019-03-25T23:28:51.126Z,75291.61
2019-03-25T23:31:32.413Z,75296.58
2019-03-25T23:34:13.367Z,75296.58
2019-03-25T23:36:54.388Z,75306.51
2019-03-25T23:39:35.698Z,75315.45
2019-03-25T23:42:17.213Z,75315.45
2019-03-25T23:44:58.164Z,75318.43
2019-03-25T23:47:39.844Z,75324.39
2019-03-25T23:50:20.735Z,75334.33
2019-03-25T23:53:02.019Z,75341.28
2019-03-25T23:55:42.979Z,75351.22
2019-03-25T23:58:23.727Z,75356.18
